Accueil
METAR-TAF:

METAR-TAF

Aéroports :

Aéroport d'Aden

Aden, Yémen

latitude: 12-40N, longitude: 045-02E, altitude: 3 m

Observation

Le bulletin a été fait il y a 56 minutes, à 18:00 UTC
Vent 9 kt de est
Température 33°C
Humidité 56%
Pression 1001 hPa
Visibilité: 3000 m
Quelques nuages à une hauteur de 2000 ft
Nuages épars à une hauteur de 10000 ft
poussière généralisée,

METAR: OYAA 241800Z 10009KT 3000 DU FEW020 SCT100 33/23 Q1001 NOSIG

Heure: 21:56 (18:56 UTC)


TAF: absent

Observations et prévisions météorologiques de plus de 4000 aéroports (messages METAR et TAF).

Les stations disponibles sont représentées par des disques jaunes et rouges sur la carte.

Passer la souris dessus pour voir le nom de la station.

Cliquer dessus pour voir les observations et prévisions météorologiques.

Pour changer de carte: cliquez sur les boutons verts avec une croix noire pour zoomer, sur le bouton vert avec un tiret pour effectuer un zoom arrière, ou sur les flèches vertes pour les cartes adjacentes.


METAR-TAF: